Time;durP1;ratioP1;P1;durP2;ratioP2;P2;SDS_P1;SDS_P2;PMS_P1;PMS_P2;Temp;Humidity;BMP_temperature;BMP_pressure;BME280_temperature;BME280_humidity;BME280_pressure;Samples;Min_cycle;Max_cycle;Signal;HPM_P1;HPM_P2
2023/07/23 00:01:55;;;;;;;;;;;24.30;38.60;;;;;;1542498;76;655;-61
2023/07/23 00:03:57;;;;;;;;;;;24.30;38.50;;;;;;1530130;76;767;-60
2023/07/23 00:05:59;;;;;;;;;;;24.30;38.50;;;;;;1526613;76;1930;-60
2023/07/23 00:08:01;;;;;;;;;;;24.30;38.60;;;;;;1553771;75;784;-61
2023/07/23 00:10:03;;;;;;;;;;;24.30;38.70;;;;;;1543791;76;1547;-60
2023/07/23 00:12:05;;;;;;;;;;;24.30;38.60;;;;;;1553050;76;849;-60
2023/07/23 00:14:07;;;;;;;;;;;24.30;38.70;;;;;;1532730;76;767;-60
2023/07/23 00:16:09;;;;;;;;;;;24.30;38.60;;;;;;1531282;76;732;-60
2023/07/23 00:18:10;;;;;;;;;;;24.30;38.60;;;;;;1547271;76;689;-61
2023/07/23 00:20:12;;;;;;;;;;;24.30;38.80;;;;;;1548608;76;1152;-60
2023/07/23 00:22:14;;;;;;;;;;;24.30;38.70;;;;;;1548944;76;598;-60
2023/07/23 00:24:17;;;;;;;;;;;24.30;38.60;;;;;;1550154;76;1702;-60
2023/07/23 00:26:19;;;;;;;;;;;24.20;38.60;;;;;;1539597;76;1923;-61
2023/07/23 00:28:21;;;;;;;;;;;24.30;38.80;;;;;;1535383;76;735;-60
2023/07/23 00:30:22;;;;;;;;;;;24.20;38.60;;;;;;1538132;75;1131;-60
2023/07/23 00:32:24;;;;;;;;;;;24.20;38.60;;;;;;1529269;76;742;-63
2023/07/23 00:34:26;;;;;;;;;;;24.20;38.60;;;;;;1531248;76;800;-60
2023/07/23 00:36:28;;;;;;;;;;;24.40;38.80;;;;;;1537193;76;660;-60
2023/07/23 00:38:30;;;;;;;;;;;24.30;38.70;;;;;;1546197;75;1653;-60
2023/07/23 00:40:32;;;;;;;;;;;24.20;38.50;;;;;;1542243;76;1130;-60
2023/07/23 00:42:34;;;;;;;;;;;24.30;38.80;;;;;;1539196;76;785;-59
2023/07/23 00:44:36;;;;;;;;;;;24.30;38.90;;;;;;1536983;76;689;-60
2023/07/23 00:46:38;;;;;;;;;;;24.30;38.90;;;;;;1543789;75;1941;-60
2023/07/23 00:48:40;;;;;;;;;;;24.20;38.80;;;;;;1553497;72;224081;-72
2023/07/23 00:50:41;;;;;;;;;;;24.30;38.90;;;;;;1551680;74;907;-71
2023/07/23 00:52:43;;;;;;;;;;;24.30;38.90;;;;;;1573026;74;1673;-71
2023/07/23 00:54:45;;;;;;;;;;;24.20;38.90;;;;;;1560717;74;726;-73
2023/07/23 00:56:47;;;;;;;;;;;24.20;38.90;;;;;;1565469;75;757;-73
2023/07/23 00:58:49;;;;;;;;;;;24.20;38.90;;;;;;1581523;73;1178;-73
2023/07/23 01:00:51;;;;;;;;;;;24.20;39.00;;;;;;1587764;73;741;-73
2023/07/23 01:02:53;;;;;;;;;;;24.20;39.00;;;;;;1587877;73;740;-71
2023/07/23 01:04:55;;;;;;;;;;;24.20;39.00;;;;;;1573127;73;1553;-72
2023/07/23 01:06:57;;;;;;;;;;;24.20;38.90;;;;;;1587935;73;1953;-72
2023/07/23 01:09:00;;;;;;;;;;;24.20;39.00;;;;;;1577047;73;1119;-71
2023/07/23 01:11:02;;;;;;;;;;;24.20;39.00;;;;;;1592929;73;719;-71
2023/07/23 01:13:04;;;;;;;;;;;24.10;39.10;;;;;;1586201;73;816;-71
2023/07/23 01:15:06;;;;;;;;;;;24.10;39.10;;;;;;1587827;73;763;-71
2023/07/23 01:17:08;;;;;;;;;;;24.20;39.10;;;;;;1590116;73;772;-71
2023/07/23 01:19:12;;;;;;;;;;;24.30;39.20;;;;;;1551907;74;1190;-71
2023/07/23 01:21:21;;;;;;;;;;;24.20;39.10;;;;;;1584432;73;681;-71
2023/07/23 01:23:20;;;;;;;;;;;24.20;39.10;;;;;;1577983;73;1634;-71
2023/07/23 01:25:22;;;;;;;;;;;24.20;39.20;;;;;;1575393;75;1925;-72
2023/07/23 01:27:24;;;;;;;;;;;24.20;39.20;;;;;;1586645;73;1125;-71
2023/07/23 01:29:26;;;;;;;;;;;24.10;39.30;;;;;;1582335;73;742;-74
2023/07/23 01:31:27;;;;;;;;;;;24.20;39.30;;;;;;1583257;73;680;-72
2023/07/23 01:33:29;;;;;;;;;;;24.10;39.40;;;;;;1575969;73;1523;-71
2023/07/23 01:35:31;;;;;;;;;;;24.10;39.30;;;;;;1583085;73;698;-71
2023/07/23 01:37:33;;;;;;;;;;;24.10;39.40;;;;;;1587701;74;1139;-72
2023/07/23 01:39:35;;;;;;;;;;;24.20;39.40;;;;;;1587246;73;757;-69
2023/07/23 01:41:37;;;;;;;;;;;24.20;39.40;;;;;;1583180;73;735;-71
2023/07/23 01:43:39;;;;;;;;;;;24.20;39.40;;;;;;1583225;74;702;-73
2023/07/23 01:45:44;;;;;;;;;;;24.10;39.40;;;;;;1583196;73;1926;-72
2023/07/23 01:47:46;;;;;;;;;;;24.20;39.30;;;;;;1585465;73;1533;-72
2023/07/23 01:49:48;;;;;;;;;;;24.20;39.40;;;;;;1584576;73;898;-72
2023/07/23 01:51:50;;;;;;;;;;;24.20;39.40;;;;;;1594603;73;767;-74
2023/07/23 01:53:52;;;;;;;;;;;24.00;39.30;;;;;;1587673;73;742;-72
2023/07/23 01:55:53;;;;;;;;;;;24.10;39.40;;;;;;1581681;73;711;-71
2023/07/23 01:57:55;;;;;;;;;;;24.20;39.50;;;;;;1580750;73;1240;-72
2023/07/23 01:59:57;;;;;;;;;;;24.00;39.40;;;;;;1580517;73;733;-72
2023/07/23 02:01:59;;;;;;;;;;;24.00;39.40;;;;;;1585623;73;1561;-72
2023/07/23 02:04:01;;;;;;;;;;;24.10;39.60;;;;;;1586494;73;748;-73
2023/07/23 02:06:03;;;;;;;;;;;24.20;39.70;;;;;;1583103;73;1923;-75
2023/07/23 02:08:05;;;;;;;;;;;24.10;39.70;;;;;;1584140;74;1191;-71
2023/07/23 02:10:10;;;;;;;;;;;24.10;39.60;;;;;;1589399;74;729;-71
2023/07/23 02:12:12;;;;;;;;;;;24.10;39.60;;;;;;1593961;73;675;-71
2023/07/23 02:14:14;;;;;;;;;;;24.20;39.60;;;;;;1584663;73;740;-71
2023/07/23 02:16:19;;;;;;;;;;;24.00;39.50;;;;;;1588250;73;1515;-69
2023/07/23 02:18:21;;;;;;;;;;;24.10;39.60;;;;;;1588979;73;1148;-72
2023/07/23 02:20:22;;;;;;;;;;;24.10;39.60;;;;;;1588003;73;619;-71
2023/07/23 02:22:24;;;;;;;;;;;24.10;39.60;;;;;;1589212;74;732;-73
2023/07/23 02:24:26;;;;;;;;;;;24.10;39.60;;;;;;1585232;73;709;-74
2023/07/23 02:26:28;;;;;;;;;;;24.10;39.60;;;;;;1584811;73;1937;-71
2023/07/23 02:28:30;;;;;;;;;;;24.10;39.70;;;;;;1576718;73;1137;-71
2023/07/23 02:30:32;;;;;;;;;;;24.20;39.60;;;;;;1580421;73;1485;-72
2023/07/23 02:32:34;;;;;;;;;;;24.10;39.60;;;;;;1580903;73;714;-71
2023/07/23 02:34:35;;;;;;;;;;;24.00;39.50;;;;;;1592413;73;710;-71
2023/07/23 02:36:37;;;;;;;;;;;24.10;39.50;;;;;;1576494;73;653;-74
2023/07/23 02:38:39;;;;;;;;;;;24.10;39.60;;;;;;1578873;73;1136;-74
2023/07/23 02:40:41;;;;;;;;;;;24.10;39.70;;;;;;1587002;73;764;-72
2023/07/23 02:42:43;;;;;;;;;;;24.10;39.70;;;;;;1582151;73;783;-73
2023/07/23 02:44:45;;;;;;;;;;;24.10;39.70;;;;;;1581474;73;1528;-72
2023/07/23 02:46:47;;;;;;;;;;;24.10;39.70;;;;;;1586040;73;1947;-74
2023/07/23 02:48:49;;;;;;;;;;;24.10;39.70;;;;;;1589378;73;1138;-72
2023/07/23 02:50:53;;;;;;;;;;;24.10;39.70;;;;;;1581782;73;672;-73
2023/07/23 02:52:55;;;;;;;;;;;24.00;39.60;;;;;;1596431;73;857;-70
2023/07/23 02:54:57;;;;;;;;;;;24.00;39.60;;;;;;1591448;73;776;-71
2023/07/23 02:56:59;;;;;;;;;;;24.10;39.80;;;;;;1577524;73;650;-73
2023/07/23 02:59:03;;;;;;;;;;;24.00;39.60;;;;;;1583120;73;1584;-71
2023/07/23 03:01:04;;;;;;;;;;;24.10;39.80;;;;;;1592221;73;704;-72
2023/07/23 03:03:07;;;;;;;;;;;24.00;39.70;;;;;;1579623;74;722;-72
2023/07/23 03:05:09;;;;;;;;;;;24.00;39.70;;;;;;1579975;73;796;-70
2023/07/23 03:07:11;;;;;;;;;;;24.00;39.70;;;;;;1589129;73;1922;-71
2023/07/23 03:09:13;;;;;;;;;;;24.00;39.80;;;;;;1600115;73;1147;-71
2023/07/23 03:11:15;;;;;;;;;;;24.00;39.80;;;;;;1577928;73;722;-71
2023/07/23 03:13:16;;;;;;;;;;;24.00;39.80;;;;;;1572571;73;1625;-73
2023/07/23 03:15:18;;;;;;;;;;;24.00;39.90;;;;;;1584111;73;758;-75
2023/07/23 03:17:20;;;;;;;;;;;24.00;40.00;;;;;;1586634;73;1146;-75
2023/07/23 03:19:22;;;;;;;;;;;24.00;39.90;;;;;;1585846;73;688;-72
2023/07/23 03:21:24;;;;;;;;;;;24.00;40.00;;;;;;1578293;73;723;-73
2023/07/23 03:23:26;;;;;;;;;;;24.00;40.10;;;;;;1592059;73;724;-72
2023/07/23 03:25:28;;;;;;;;;;;24.10;40.20;;;;;;1585339;73;780;-71
2023/07/23 03:27:30;;;;;;;;;;;24.00;40.10;;;;;;1583921;73;1933;-72
2023/07/23 03:29:32;;;;;;;;;;;24.00;40.00;;;;;;1586527;74;742;-73
2023/07/23 03:31:33;;;;;;;;;;;24.00;39.90;;;;;;1590759;73;705;-75
2023/07/23 03:33:35;;;;;;;;;;;24.10;40.00;;;;;;1592919;73;746;-72
2023/07/23 03:35:37;;;;;;;;;;;24.00;39.90;;;;;;1595211;73;755;-72
2023/07/23 03:37:39;;;;;;;;;;;24.00;40.00;;;;;;1590473;73;1132;-73
2023/07/23 03:39:41;;;;;;;;;;;24.10;40.00;;;;;;1585382;73;1513;-72
2023/07/23 03:41:43;;;;;;;;;;;24.00;39.90;;;;;;1587741;73;725;-72
2023/07/23 03:43:47;;;;;;;;;;;24.00;39.90;;;;;;1584051;73;725;-71
2023/07/23 03:45:49;;;;;;;;;;;24.00;39.90;;;;;;1591004;73;1983;-75
2023/07/23 03:47:50;;;;;;;;;;;24.00;39.80;;;;;;1582523;73;1943;-71
2023/07/23 03:49:52;;;;;;;;;;;24.00;39.80;;;;;;1583213;73;802;-71
2023/07/23 03:51:54;;;;;;;;;;;24.00;39.80;;;;;;1591408;73;816;-72
2023/07/23 03:53:56;;;;;;;;;;;24.00;39.80;;;;;;1589130;73;1369;-75
2023/07/23 03:55:58;;;;;;;;;;;24.00;39.70;;;;;;1583683;73;1067;-72
2023/07/23 03:58:00;;;;;;;;;;;24.00;39.70;;;;;;1582002;73;1134;-73
2023/07/23 04:00:03;;;;;;;;;;;24.00;39.70;;;;;;1587833;73;731;-69
2023/07/23 04:02:05;;;;;;;;;;;24.00;39.70;;;;;;1585764;73;773;-71
2023/07/23 04:04:07;;;;;;;;;;;24.00;39.70;;;;;;1586312;73;712;-74
2023/07/23 04:06:09;;;;;;;;;;;24.00;39.60;;;;;;1580204;73;724;-71
2023/07/23 04:08:11;;;;;;;;;;;24.00;39.60;;;;;;1588251;73;1930;-73
2023/07/23 04:10:12;;;;;;;;;;;24.00;39.50;;;;;;1579523;73;743;-71
2023/07/23 04:12:15;;;;;;;;;;;24.00;39.50;;;;;;1585571;73;807;-72
2023/07/23 04:14:17;;;;;;;;;;;24.00;39.50;;;;;;1589569;74;720;-71
2023/07/23 04:16:19;;;;;;;;;;;24.00;39.50;;;;;;1584378;73;737;-72
2023/07/23 04:18:20;;;;;;;;;;;24.00;39.60;;;;;;1587635;73;1133;-72
2023/07/23 04:20:22;;;;;;;;;;;23.90;39.50;;;;;;1576309;73;747;-72
2023/07/23 04:22:24;;;;;;;;;;;24.10;39.70;;;;;;1590110;73;1563;-72
2023/07/23 04:24:26;;;;;;;;;;;24.00;39.50;;;;;;1581456;73;835;-72
2023/07/23 04:26:28;;;;;;;;;;;24.00;39.60;;;;;;1585741;73;1934;-75
2023/07/23 04:28:30;;;;;;;;;;;24.00;39.60;;;;;;1584764;73;1143;-74
2023/07/23 04:30:36;;;;;;;;;;;24.00;39.60;;;;;;1579025;73;746;-71
2023/07/23 04:32:35;;;;;;;;;;;24.00;39.60;;;;;;1582997;73;1159;-71
2023/07/23 04:34:37;;;;;;;;;;;24.00;39.70;;;;;;1583988;73;844;-71
2023/07/23 04:36:39;;;;;;;;;;;24.00;39.70;;;;;;1581938;73;1270;-71
2023/07/23 04:38:41;;;;;;;;;;;24.00;39.70;;;;;;1585194;73;1129;-74
2023/07/23 04:40:43;;;;;;;;;;;24.00;39.70;;;;;;1599082;73;748;-72
2023/07/23 04:42:45;;;;;;;;;;;23.90;39.70;;;;;;1584705;74;747;-72
2023/07/23 04:44:47;;;;;;;;;;;24.00;39.70;;;;;;1582403;73;708;-73
2023/07/23 04:46:49;;;;;;;;;;;23.90;39.70;;;;;;1590799;73;1935;-74
2023/07/23 04:48:51;;;;;;;;;;;23.90;39.80;;;;;;1580486;73;1116;-71
2023/07/23 04:50:59;;;;;;;;;;;23.90;39.90;;;;;;1569481;73;1493;-72
2023/07/23 04:53:01;;;;;;;;;;;23.90;40.00;;;;;;1590446;73;781;-71
2023/07/23 04:55:03;;;;;;;;;;;24.00;40.00;;;;;;1578373;73;722;-73
2023/07/23 04:57:05;;;;;;;;;;;24.00;40.20;;;;;;1589201;73;740;-72
2023/07/23 04:59:07;;;;;;;;;;;23.90;40.10;;;;;;1584533;73;1143;-71
2023/07/23 05:01:10;;;;;;;;;;;24.00;40.10;;;;;;1594594;73;760;-72
2023/07/23 05:03:12;;;;;;;;;;;24.00;40.20;;;;;;1590465;73;805;-70
2023/07/23 05:05:14;;;;;;;;;;;24.00;40.20;;;;;;1582646;74;1524;-74
2023/07/23 05:07:16;;;;;;;;;;;24.00;40.20;;;;;;1581956;73;1935;-70
2023/07/23 05:09:18;;;;;;;;;;;24.00;40.30;;;;;;1578347;73;823;-70
2023/07/23 05:11:19;;;;;;;;;;;24.00;40.50;;;;;;1588827;73;808;-74
2023/07/23 05:13:21;;;;;;;;;;;24.00;40.60;;;;;;1584620;74;794;-74
2023/07/23 05:15:23;;;;;;;;;;;24.10;40.60;;;;;;1581895;73;780;-71
2023/07/23 05:17:25;;;;;;;;;;;24.10;40.70;;;;;;1578821;73;1164;-71
2023/07/23 05:19:27;;;;;;;;;;;24.00;40.60;;;;;;1587802;73;1342;-71
2023/07/23 05:21:29;;;;;;;;;;;24.00;40.70;;;;;;1576659;73;711;-71
2023/07/23 05:23:31;;;;;;;;;;;24.00;40.60;;;;;;1598472;73;1069;-73
2023/07/23 05:25:33;;;;;;;;;;;24.00;40.60;;;;;;1583176;73;1140;-71
2023/07/23 05:27:35;;;;;;;;;;;24.00;40.70;;;;;;1584285;73;1934;-72
2023/07/23 05:29:37;;;;;;;;;;;24.10;40.70;;;;;;1589827;73;1467;-71
2023/07/23 05:31:39;;;;;;;;;;;24.10;40.80;;;;;;1581437;73;1482;-73
2023/07/23 05:33:41;;;;;;;;;;;24.10;40.90;;;;;;1588494;73;1575;-71
2023/07/23 05:35:42;;;;;;;;;;;24.10;41.00;;;;;;1579230;73;1086;-71
2023/07/23 05:37:44;;;;;;;;;;;24.10;41.20;;;;;;1591088;73;1136;-71
2023/07/23 05:39:48;;;;;;;;;;;24.10;41.30;;;;;;1576712;74;1781;-72
2023/07/23 05:41:50;;;;;;;;;;;24.00;41.30;;;;;;1579383;73;1302;-71
2023/07/23 05:43:52;;;;;;;;;;;24.20;41.50;;;;;;1588275;73;1553;-72
2023/07/23 05:45:53;;;;;;;;;;;24.10;41.70;;;;;;1583326;73;1512;-71
2023/07/23 05:47:55;;;;;;;;;;;24.20;41.70;;;;;;1582600;73;1942;-71
2023/07/23 05:49:57;;;;;;;;;;;24.20;41.80;;;;;;1587686;73;1269;-71
2023/07/23 05:51:59;;;;;;;;;;;24.10;41.50;;;;;;1589741;73;1050;-72
2023/07/23 05:54:01;;;;;;;;;;;24.20;41.90;;;;;;1592094;73;1262;-71
2023/07/23 05:56:04;;;;;;;;;;;24.20;42.10;;;;;;1584230;73;1260;-74
2023/07/23 05:58:07;;;;;;;;;;;24.20;42.30;;;;;;1592724;73;1607;-69
2023/07/23 06:00:09;;;;;;;;;;;24.10;42.40;;;;;;1576700;73;1295;-71
2023/07/23 06:02:11;;;;;;;;;;;24.20;42.40;;;;;;1587194;73;1732;-71
2023/07/23 06:04:12;;;;;;;;;;;24.20;42.40;;;;;;1588264;73;1487;-71
2023/07/23 06:06:14;;;;;;;;;;;24.20;42.40;;;;;;1589168;73;1504;-71
2023/07/23 06:08:16;;;;;;;;;;;24.20;42.20;;;;;;1581407;73;1943;-73
2023/07/23 06:10:18;;;;;;;;;;;24.20;42.10;;;;;;1573926;73;1529;-73
2023/07/23 06:12:20;;;;;;;;;;;24.20;42.10;;;;;;1577772;74;1294;-75
2023/07/23 06:14:22;;;;;;;;;;;24.20;42.20;;;;;;1577861;74;1464;-71
2023/07/23 06:16:24;;;;;;;;;;;24.20;42.30;;;;;;1585208;73;1466;-73
2023/07/23 06:18:25;;;;;;;;;;;24.30;42.60;;;;;;1586421;73;1209;-71
2023/07/23 06:20:27;;;;;;;;;;;24.20;42.30;;;;;;1581775;73;1111;-71
2023/07/23 06:22:29;;;;;;;;;;;24.30;42.40;;;;;;1581083;73;1083;-73
2023/07/23 06:24:31;;;;;;;;;;;24.20;42.30;;;;;;1576494;73;1720;-71
2023/07/23 06:26:33;;;;;;;;;;;24.30;42.30;;;;;;1590095;73;1154;-68
2023/07/23 06:28:35;;;;;;;;;;;24.20;42.10;;;;;;1579120;73;1924;-72
2023/07/23 06:30:37;;;;;;;;;;;24.30;42.10;;;;;;1576178;73;1116;-72
2023/07/23 06:32:39;;;;;;;;;;;24.30;41.90;;;;;;1585710;73;1141;-71
2023/07/23 06:34:41;;;;;;;;;;;24.30;41.90;;;;;;1589182;73;1495;-70
2023/07/23 06:36:45;;;;;;;;;;;24.30;41.80;;;;;;1573733;73;1502;-71
2023/07/23 06:38:47;;;;;;;;;;;24.30;41.80;;;;;;1578850;73;1632;-74
2023/07/23 06:40:50;;;;;;;;;;;24.30;41.90;;;;;;1582364;73;1069;-72
2023/07/23 06:42:52;;;;;;;;;;;24.30;41.90;;;;;;1586972;73;1486;-71
2023/07/23 06:44:54;;;;;;;;;;;24.30;41.90;;;;;;1581802;73;1406;-71
2023/07/23 06:46:58;;;;;;;;;;;24.30;42.00;;;;;;1588024;73;1281;-71
2023/07/23 06:48:59;;;;;;;;;;;24.40;42.30;;;;;;1589169;73;1941;-72
2023/07/23 06:51:01;;;;;;;;;;;24.30;42.30;;;;;;1584794;73;1275;-73
2023/07/23 06:53:04;;;;;;;;;;;24.40;42.10;;;;;;1587323;73;1212;-71
2023/07/23 06:55:06;;;;;;;;;;;24.30;42.10;;;;;;1584870;73;1536;-72
2023/07/23 06:57:08;;;;;;;;;;;24.40;42.10;;;;;;1583468;73;1544;-71
2023/07/23 06:59:10;;;;;;;;;;;24.40;42.10;;;;;;1584066;74;1238;-74
2023/07/23 07:01:12;;;;;;;;;;;24.40;42.10;;;;;;1582929;73;1510;-72
2023/07/23 07:03:14;;;;;;;;;;;24.30;42.20;;;;;;1596209;73;1114;-71
2023/07/23 07:05:16;;;;;;;;;;;24.40;42.20;;;;;;1595253;73;1061;-71
2023/07/23 07:07:18;;;;;;;;;;;24.40;42.20;;;;;;1592582;73;1935;-71
2023/07/23 07:09:19;;;;;;;;;;;24.40;42.30;;;;;;1578852;73;1128;-71
2023/07/23 07:11:21;;;;;;;;;;;24.40;42.20;;;;;;1583647;73;1282;-72
2023/07/23 07:13:23;;;;;;;;;;;24.40;42.50;;;;;;1577693;74;1129;-71
2023/07/23 07:15:26;;;;;;;;;;;24.30;42.90;;;;;;1590511;73;1535;-72
2023/07/23 07:17:27;;;;;;;;;;;24.40;43.60;;;;;;1583996;74;1133;-72
2023/07/23 07:19:29;;;;;;;;;;;24.30;43.90;;;;;;1572823;73;1145;-74
2023/07/23 07:21:31;;;;;;;;;;;24.30;44.20;;;;;;1574260;73;1041;-76
2023/07/23 07:23:33;;;;;;;;;;;24.30;44.30;;;;;;1581206;73;1492;-71
2023/07/23 07:25:36;;;;;;;;;;;24.30;44.90;;;;;;1583381;73;1530;-70
2023/07/23 07:27:38;;;;;;;;;;;24.30;45.10;;;;;;1583810;73;1958;-75
2023/07/23 07:29:40;;;;;;;;;;;24.30;44.90;;;;;;1583872;73;1113;-71
2023/07/23 07:31:42;;;;;;;;;;;24.30;44.50;;;;;;1574476;73;1461;-73
2023/07/23 07:33:44;;;;;;;;;;;24.30;44.00;;;;;;1579107;73;1123;-71
2023/07/23 07:35:46;;;;;;;;;;;24.40;43.80;;;;;;1589177;73;1176;-71
2023/07/23 07:37:48;;;;;;;;;;;24.30;43.60;;;;;;1578644;73;1150;-76
2023/07/23 07:39:50;;;;;;;;;;;24.40;43.60;;;;;;1588424;73;1473;-71
2023/07/23 07:41:53;;;;;;;;;;;24.40;43.50;;;;;;1588925;73;1218;-71
2023/07/23 07:43:55;;;;;;;;;;;24.40;43.50;;;;;;1585767;73;1122;-74
2023/07/23 07:46:00;;;;;;;;;;;24.40;43.60;;;;;;1589337;73;1455;-68
2023/07/23 07:48:00;;;;;;;;;;;24.40;43.60;;;;;;1583608;73;1943;-71
2023/07/23 07:50:04;;;;;;;;;;;24.50;43.30;;;;;;1580008;73;1145;-71
2023/07/23 07:52:06;;;;;;;;;;;24.50;43.30;;;;;;1580537;73;2009;-73
2023/07/23 07:54:08;;;;;;;;;;;24.40;43.40;;;;;;1585815;73;1301;-69
2023/07/23 07:56:14;;;;;;;;;;;24.40;43.90;;;;;;1589200;73;1270;-72
2023/07/23 07:58:17;;;;;;;;;;;24.50;44.00;;;;;;1589114;73;2047;-71
2023/07/23 08:00:19;;;;;;;;;;;24.50;44.10;;;;;;1597495;73;1368;-73
2023/07/23 08:02:21;;;;;;;;;;;24.50;44.30;;;;;;1587191;73;1254;-72
2023/07/23 08:04:23;;;;;;;;;;;24.50;44.40;;;;;;1600319;73;1272;-72
2023/07/23 08:06:25;;;;;;;;;;;24.60;44.40;;;;;;1589653;73;1167;-73
2023/07/23 08:08:27;;;;;;;;;;;24.50;44.80;;;;;;1577285;73;1950;-71
2023/07/23 08:10:29;;;;;;;;;;;24.50;44.90;;;;;;1587751;73;1158;-75
2023/07/23 08:12:31;;;;;;;;;;;24.50;44.90;;;;;;1584028;73;1129;-76
2023/07/23 08:14:33;;;;;;;;;;;24.50;45.10;;;;;;1570126;73;1078;-73
2023/07/23 08:16:35;;;;;;;;;;;24.60;45.00;;;;;;1588925;73;1508;-71
2023/07/23 08:18:37;;;;;;;;;;;24.60;45.00;;;;;;1590839;73;1208;-71
2023/07/23 08:20:39;;;;;;;;;;;24.60;45.00;;;;;;1586997;73;1185;-71
2023/07/23 08:22:41;;;;;;;;;;;24.60;45.00;;;;;;1586618;73;1356;-71
2023/07/23 08:24:43;;;;;;;;;;;24.60;45.00;;;;;;1583032;73;1152;-71
2023/07/23 08:26:47;;;;;;;;;;;24.50;44.80;;;;;;1588118;73;1507;-71
2023/07/23 08:28:51;;;;;;;;;;;24.50;44.80;;;;;;1580180;73;1938;-74
2023/07/23 08:30:55;;;;;;;;;;;24.60;44.90;;;;;;1590273;73;1120;-69
2023/07/23 08:32:56;;;;;;;;;;;24.60;44.80;;;;;;1589081;73;1734;-71
2023/07/23 08:34:58;;;;;;;;;;;24.60;44.90;;;;;;1590228;73;1163;-72
2023/07/23 08:37:00;;;;;;;;;;;24.60;44.90;;;;;;1580555;73;1146;-73
2023/07/23 08:39:04;;;;;;;;;;;24.60;44.70;;;;;;1583220;73;1199;-71
2023/07/23 08:41:08;;;;;;;;;;;24.60;44.60;;;;;;1581539;73;2019;-72
2023/07/23 08:43:29;;;;;;;;;;;24.60;44.50;;;;;;1586343;73;1186;-71
2023/07/23 08:45:35;;;;;;;;;;;24.60;44.50;;;;;;1580633;73;1066;-71
2023/07/23 08:47:37;;;;;;;;;;;24.60;44.50;;;;;;1576612;73;1154;-71
2023/07/23 08:49:42;;;;;;;;;;;24.60;44.50;;;;;;1581216;73;1928;-71
2023/07/23 08:51:45;;;;;;;;;;;24.60;44.40;;;;;;1591530;73;1278;-68
2023/07/23 08:53:47;;;;;;;;;;;24.60;44.30;;;;;;1590918;73;1069;-72
2023/07/23 08:55:49;;;;;;;;;;;24.60;44.30;;;;;;1594280;73;1467;-71
2023/07/23 08:57:51;;;;;;;;;;;24.60;44.20;;;;;;1582804;73;1156;-73
2023/07/23 08:59:53;;;;;;;;;;;24.60;44.10;;;;;;1584414;73;1479;-71
2023/07/23 09:01:55;;;;;;;;;;;24.60;43.90;;;;;;1587220;73;1108;-73
2023/07/23 09:03:57;;;;;;;;;;;24.60;43.70;;;;;;1586274;73;1484;-71
2023/07/23 09:06:00;;;;;;;;;;;24.60;43.50;;;;;;1583437;73;1088;-69
2023/07/23 09:08:02;;;;;;;;;;;24.60;43.40;;;;;;1590395;73;1937;-71
2023/07/23 09:10:04;;;;;;;;;;;24.60;43.60;;;;;;1583119;73;1085;-71
2023/07/23 09:12:06;;;;;;;;;;;24.60;43.60;;;;;;1588369;73;1101;-71
2023/07/23 09:14:09;;;;;;;;;;;24.60;43.60;;;;;;1580749;73;1473;-73
2023/07/23 09:16:11;;;;;;;;;;;24.70;44.00;;;;;;1584439;73;1483;-71
2023/07/23 09:18:13;;;;;;;;;;;24.60;44.20;;;;;;1587681;73;1521;-74
2023/07/23 09:20:16;;;;;;;;;;;24.70;44.70;;;;;;1588101;73;1153;-73
2023/07/23 09:22:18;;;;;;;;;;;24.60;44.60;;;;;;1584319;73;1143;-71
2023/07/23 09:24:20;;;;;;;;;;;24.60;45.00;;;;;;1585679;73;1173;-71
2023/07/23 09:26:26;;;;;;;;;;;24.60;45.00;;;;;;1585198;73;1067;-70
2023/07/23 09:28:28;;;;;;;;;;;24.70;45.50;;;;;;1588448;73;1945;-72
2023/07/23 09:30:29;;;;;;;;;;;24.70;45.60;;;;;;1590781;73;1470;-71
2023/07/23 09:32:31;;;;;;;;;;;24.70;45.60;;;;;;1587441;73;1363;-71
2023/07/23 09:34:33;;;;;;;;;;;24.70;45.50;;;;;;1583466;73;1204;-71
2023/07/23 09:36:35;;;;;;;;;;;24.70;45.50;;;;;;1583523;73;1138;-71
2023/07/23 09:38:39;;;;;;;;;;;24.70;45.60;;;;;;1589509;73;1348;-72
2023/07/23 09:40:41;;;;;;;;;;;24.70;45.40;;;;;;1587211;73;1061;-70
2023/07/23 09:42:43;;;;;;;;;;;24.70;45.10;;;;;;1586644;73;1501;-72
2023/07/23 09:44:45;;;;;;;;;;;24.70;44.90;;;;;;1587258;73;1121;-71
2023/07/23 09:46:47;;;;;;;;;;;24.70;44.70;;;;;;1581833;73;1219;-72
2023/07/23 09:48:49;;;;;;;;;;;24.70;44.50;;;;;;1575905;73;1962;-71
2023/07/23 09:50:51;;;;;;;;;;;24.70;44.40;;;;;;1542317;75;1530;-72
2023/07/23 09:52:53;;;;;;;;;;;24.70;44.30;;;;;;1587055;73;1501;-71
2023/07/23 09:54:54;;;;;;;;;;;24.60;44.00;;;;;;1590988;73;1118;-71
2023/07/23 09:56:56;;;;;;;;;;;24.70;43.90;;;;;;1586128;73;1090;-69
2023/07/23 09:58:59;;;;;;;;;;;24.70;43.70;;;;;;1588146;73;1260;-71
2023/07/23 10:01:01;;;;;;;;;;;24.60;43.40;;;;;;1587197;73;1516;-71
2023/07/23 10:03:03;;;;;;;;;;;24.70;43.40;;;;;;1585350;73;1473;-71
2023/07/23 10:05:05;;;;;;;;;;;24.70;43.30;;;;;;1577653;73;1094;-70
2023/07/23 10:07:07;;;;;;;;;;;24.70;43.10;;;;;;1593379;73;985;-71
2023/07/23 10:09:09;;;;;;;;;;;24.70;43.10;;;;;;1582684;73;1942;-72
2023/07/23 10:11:18;;;;;;;;;;;24.70;42.80;;;;;;1586977;73;1202;-71
2023/07/23 10:13:19;;;;;;;;;;;24.70;42.60;;;;;;1581904;73;1095;-73
2023/07/23 10:15:21;;;;;;;;;;;24.70;42.50;;;;;;1587787;73;1511;-72
2023/07/23 10:17:23;;;;;;;;;;;24.60;42.40;;;;;;1577515;73;1206;-71
2023/07/23 10:19:25;;;;;;;;;;;24.70;42.30;;;;;;1576647;73;1496;-72
2023/07/23 10:21:29;;;;;;;;;;;24.70;42.00;;;;;;1585157;73;1153;-74
2023/07/23 10:23:30;;;;;;;;;;;24.70;41.90;;;;;;1588422;73;1956;-72
2023/07/23 10:25:33;;;;;;;;;;;24.70;41.80;;;;;;1579596;73;1316;-73
2023/07/23 10:27:35;;;;;;;;;;;24.70;41.40;;;;;;1582981;73;1506;-69
2023/07/23 10:29:37;;;;;;;;;;;24.70;41.30;;;;;;1559537;75;1935;-70
2023/07/23 10:31:39;;;;;;;;;;;24.70;41.20;;;;;;1580201;73;1114;-72
2023/07/23 10:33:41;;;;;;;;;;;24.70;41.20;;;;;;1577468;73;1470;-69
2023/07/23 10:35:58;;;;;;;;;;;24.70;40.70;;;;;;1590987;73;1512;-72
2023/07/23 10:38:18;;;;;;;;;;;24.70;40.70;;;;;;1584947;73;1178;-73
2023/07/23 10:40:22;;;;;;;;;;;24.70;40.50;;;;;;1582953;73;1165;-72
2023/07/23 10:42:34;;;;;;;;;;;24.70;40.50;;;;;;1585098;73;1524;-73
2023/07/23 10:44:38;;;;;;;;;;;24.70;40.40;;;;;;1592465;73;1496;-72
2023/07/23 10:46:40;;;;;;;;;;;24.70;40.00;;;;;;1588229;73;1509;-70
2023/07/23 10:48:48;;;;;;;;;;;24.70;39.90;;;;;;1585959;73;1938;-72
2023/07/23 10:51:02;;;;;;;;;;;24.70;39.70;;;;;;1584006;73;1234;-72
2023/07/23 10:53:04;;;;;;;;;;;24.70;39.70;;;;;;1585321;73;1579;-72
2023/07/23 10:55:07;;;;;;;;;;;24.70;39.60;;;;;;1582014;73;1238;-72
2023/07/23 10:57:08;;;;;;;;;;;24.70;39.70;;;;;;1553049;75;1246;-73
2023/07/23 10:59:11;;;;;;;;;;;24.70;39.40;;;;;;1593055;73;1124;-71
2023/07/23 11:01:13;;;;;;;;;;;24.70;39.20;;;;;;1584641;73;1506;-72
2023/07/23 11:03:19;;;;;;;;;;;24.70;39.20;;;;;;1589736;73;1523;-71
2023/07/23 11:05:18;;;;;;;;;;;24.70;38.70;;;;;;1578286;74;1444;-71
2023/07/23 11:07:29;;;;;;;;;;;24.70;38.60;;;;;;1593226;73;1066;-73
2023/07/23 11:09:32;;;;;;;;;;;24.70;38.60;;;;;;1580052;73;1920;-75
2023/07/23 11:11:36;;;;;;;;;;;24.70;38.50;;;;;;1588150;73;1616;-75
2023/07/23 11:13:38;;;;;;;;;;;24.70;38.60;;;;;;1581644;73;1943;-76
2023/07/23 11:15:40;;;;;;;;;;;24.70;38.60;;;;;;1552549;75;1139;-74
2023/07/23 11:17:42;;;;;;;;;;;24.70;38.30;;;;;;1583982;73;1252;-74
2023/07/23 11:19:46;;;;;;;;;;;24.70;38.70;;;;;;1585950;73;1471;-75
2023/07/23 11:21:50;;;;;;;;;;;24.70;38.60;;;;;;1580016;73;1151;-75
2023/07/23 11:23:52;;;;;;;;;;;24.70;38.60;;;;;;1586863;73;1540;-75
2023/07/23 11:25:54;;;;;;;;;;;24.70;38.60;;;;;;1579964;73;1394;-75
2023/07/23 11:27:56;;;;;;;;;;;24.80;38.40;;;;;;1591276;73;1136;-76
2023/07/23 11:29:58;;;;;;;;;;;24.70;38.30;;;;;;1579831;73;1947;-76
2023/07/23 11:32:00;;;;;;;;;;;24.70;38.10;;;;;;1582288;73;1402;-75
2023/07/23 11:34:02;;;;;;;;;;;24.70;38.10;;;;;;1579142;73;1192;-76
2023/07/23 11:36:04;;;;;;;;;;;24.80;38.50;;;;;;1596190;73;1539;-75
2023/07/23 11:38:06;;;;;;;;;;;24.70;38.30;;;;;;1582458;73;1097;-75
2023/07/23 11:40:08;;;;;;;;;;;24.70;37.90;;;;;;1575921;73;1116;-75
2023/07/23 11:42:12;;;;;;;;;;;24.70;37.70;;;;;;1577431;73;1497;-75
2023/07/23 11:44:13;;;;;;;;;;;24.80;37.90;;;;;;1574383;73;1835;-75
2023/07/23 11:46:18;;;;;;;;;;;24.70;38.00;;;;;;1585096;73;1513;-75
2023/07/23 11:48:21;;;;;;;;;;;24.70;37.80;;;;;;1576571;73;1491;-75
2023/07/23 11:50:23;;;;;;;;;;;24.70;37.80;;;;;;1580294;73;1926;-74
2023/07/23 11:52:25;;;;;;;;;;;24.70;37.80;;;;;;1584815;73;1477;-75
2023/07/23 11:54:27;;;;;;;;;;;24.70;37.80;;;;;;1589872;73;1048;-75
2023/07/23 11:56:30;;;;;;;;;;;24.80;37.80;;;;;;1582926;73;1468;-75
2023/07/23 11:58:33;;;;;;;;;;;24.70;37.80;;;;;;1585988;73;1322;-75
2023/07/23 12:00:48;;;;;;;;;;;24.70;38.00;;;;;;1594443;73;1324;-75
2023/07/23 12:02:41;;;;;;;;;;;24.80;38.10;;;;;;1580537;73;1610;-74
2023/07/23 12:04:43;;;;;;;;;;;24.70;37.90;;;;;;1586787;73;1515;-74
2023/07/23 12:06:45;;;;;;;;;;;24.80;37.80;;;;;;1589617;73;1323;-74